createdAt,value
2022-11-29T00:00:57.656Z,4.91
2022-11-29T00:03:24.870Z,5.23
2022-11-29T00:05:52.644Z,5.37
2022-11-29T00:08:20.114Z,5.71
2022-11-29T00:10:47.067Z,5.91
2022-11-29T00:13:13.940Z,6.15
2022-11-29T00:15:40.415Z,6.13
2022-11-29T00:18:07.158Z,5.84
2022-11-29T00:20:34.679Z,5.61
2022-11-29T00:23:01.659Z,5.44
2022-11-29T00:25:28.352Z,5.52
2022-11-29T00:27:55.207Z,5.27
2022-11-29T00:30:21.785Z,5.10
2022-11-29T00:32:48.569Z,5.08
2022-11-29T00:35:15.003Z,5.21
2022-11-29T00:37:41.652Z,5.38
2022-11-29T00:40:08.587Z,5.57
2022-11-29T00:42:35.080Z,5.80
2022-11-29T00:45:01.818Z,5.84
2022-11-29T00:47:28.389Z,5.96
2022-11-29T00:49:55.769Z,6.23
2022-11-29T00:52:22.296Z,6.46
2022-11-29T00:54:48.791Z,6.43
2022-11-29T00:57:15.324Z,5.78
2022-11-29T00:59:41.879Z,5.29
2022-11-29T01:02:08.387Z,4.99
2022-11-29T01:04:35.253Z,4.85
2022-11-29T01:07:01.753Z,4.80
2022-11-29T01:09:28.575Z,4.82
2022-11-29T01:11:55.151Z,4.70
2022-11-29T01:14:21.699Z,4.53
2022-11-29T01:16:48.363Z,4.54
2022-11-29T01:19:14.950Z,4.73
2022-11-29T01:21:41.462Z,4.98
2022-11-29T01:24:07.973Z,4.80
2022-11-29T01:26:34.503Z,4.61
2022-11-29T01:29:01.064Z,4.44
2022-11-29T01:31:29.410Z,4.19
2022-11-29T01:33:57.517Z,4.17
2022-11-29T01:36:24.549Z,3.86
2022-11-29T01:38:51.979Z,3.58
2022-11-29T01:41:22.551Z,3.65
2022-11-29T01:44:08.371Z,3.62
2022-11-29T01:46:39.583Z,3.60
2022-11-29T01:49:09.323Z,3.59
2022-11-29T01:51:36.987Z,3.83
2022-11-29T01:54:04.542Z,4.32
2022-11-29T01:56:33.128Z,4.56
2022-11-29T01:59:04.645Z,4.35
2022-11-29T02:01:31.666Z,4.14
2022-11-29T02:03:59.125Z,4.19
2022-11-29T02:06:26.560Z,4.27
2022-11-29T02:08:53.867Z,4.33
2022-11-29T02:11:31.277Z,4.38
2022-11-29T02:13:57.766Z,4.53
2022-11-29T02:16:33.969Z,4.47
2022-11-29T02:19:17.867Z,4.12
2022-11-29T02:21:48.602Z,4.31
2022-11-29T02:24:27.342Z,4.59
2022-11-29T02:27:06.290Z,4.73
2022-11-29T02:29:57.024Z,4.85
2022-11-29T02:32:42.596Z,4.96
2022-11-29T02:35:15.436Z,4.86
2022-11-29T02:37:54.385Z,4.80
2022-11-29T02:40:23.981Z,4.68
2022-11-29T02:43:09.155Z,4.71
2022-11-29T02:45:35.818Z,4.84
2022-11-29T02:48:17.639Z,4.95
2022-11-29T02:51:22.939Z,5.09
2022-11-29T02:54:05.951Z,5.24
2022-11-29T02:56:44.978Z,5.18
2022-11-29T02:59:29.827Z,5.31
2022-11-29T03:02:08.170Z,5.24
2022-11-29T03:04:44.946Z,4.98
2022-11-29T03:07:26.585Z,4.83
2022-11-29T03:10:02.379Z,4.90
2022-11-29T03:12:28.850Z,4.99
2022-11-29T03:15:01.280Z,5.01
2022-11-29T03:17:27.925Z,5.05
2022-11-29T03:20:23.827Z,4.92
2022-11-29T03:23:08.918Z,4.94
2022-11-29T03:25:39.780Z,5.11
2022-11-29T03:28:13.067Z,5.33
2022-11-29T03:30:43.221Z,5.28
2022-11-29T03:33:16.636Z,5.34
2022-11-29T03:35:47.433Z,5.28
2022-11-29T03:38:25.986Z,5.06
2022-11-29T03:41:15.275Z,5.22
2022-11-29T03:43:44.782Z,5.38
2022-11-29T03:46:15.253Z,5.27
2022-11-29T03:48:45.355Z,5.12
2022-11-29T03:51:11.856Z,5.14
2022-11-29T03:53:47.281Z,5.18
2022-11-29T03:56:27.909Z,5.22
2022-11-29T03:58:54.927Z,5.40
2022-11-29T04:01:33.252Z,5.33
2022-11-29T04:04:06.025Z,5.11
2022-11-29T04:06:44.646Z,5.03
2022-11-29T04:09:11.398Z,5.09
2022-11-29T04:11:58.555Z,5.08
2022-11-29T04:14:37.626Z,5.09
2022-11-29T04:17:16.406Z,5.06
2022-11-29T04:19:46.045Z,5.08
2022-11-29T04:22:31.130Z,5.05
2022-11-29T04:25:16.202Z,5.04
2022-11-29T04:27:42.827Z,4.93
2022-11-29T04:30:13.275Z,4.86
2022-11-29T04:32:45.887Z,4.86
2022-11-29T04:35:31.229Z,4.84
2022-11-29T04:38:16.747Z,4.69
2022-11-29T04:40:43.429Z,4.62
2022-11-29T04:43:16.202Z,4.40
2022-11-29T04:46:04.501Z,4.40
2022-11-29T04:48:55.169Z,4.41
2022-11-29T04:51:21.841Z,4.43
2022-11-29T04:53:55.814Z,4.33
2022-11-29T04:56:41.583Z,4.13
2022-11-29T04:59:20.456Z,3.79
2022-11-29T05:02:09.246Z,3.54
2022-11-29T05:04:44.058Z,3.50
2022-11-29T05:07:10.882Z,3.49
2022-11-29T05:09:46.735Z,3.42
2022-11-29T05:12:23.602Z,3.13
2022-11-29T05:15:09.195Z,3.22
2022-11-29T05:17:50.328Z,3.35
2022-11-29T05:20:23.253Z,3.47
2022-11-29T05:22:49.982Z,3.63
2022-11-29T05:25:39.330Z,3.77
2022-11-29T05:28:15.930Z,3.80
2022-11-29T05:31:05.802Z,3.96
2022-11-29T05:33:43.451Z,4.13
2022-11-29T05:36:48.345Z,4.13
2022-11-29T05:39:40.933Z,4.15
2022-11-29T05:42:26.155Z,4.15
2022-11-29T05:44:58.993Z,4.25
2022-11-29T05:47:44.209Z,4.14
2022-11-29T05:50:17.597Z,4.11
2022-11-29T05:52:47.219Z,4.06
2022-11-29T05:55:14.664Z,3.81
2022-11-29T05:57:46.385Z,3.54
2022-11-29T06:00:14.218Z,3.65
2022-11-29T06:02:53.164Z,3.73
2022-11-29T06:05:26.552Z,3.54
2022-11-29T06:07:55.974Z,3.46
2022-11-29T06:10:25.576Z,3.72
2022-11-29T06:13:11.095Z,3.85
2022-11-29T06:15:41.928Z,3.71
2022-11-29T06:18:17.767Z,3.69
2022-11-29T06:20:47.722Z,3.74
2022-11-29T06:23:24.909Z,3.84
2022-11-29T06:26:07.088Z,3.91
2022-11-29T06:28:52.192Z,4.13
2022-11-29T06:31:18.982Z,4.04
2022-11-29T06:33:58.016Z,4.14
2022-11-29T06:36:33.260Z,4.13
2022-11-29T06:39:00.071Z,4.01
2022-11-29T06:41:27.042Z,3.96
2022-11-29T06:43:53.849Z,3.71
2022-11-29T06:46:27.417Z,3.50
2022-11-29T06:49:02.265Z,3.47
2022-11-29T06:51:30.077Z,3.54
2022-11-29T06:54:05.365Z,3.32
2022-11-29T06:56:58.045Z,3.37
2022-11-29T06:59:44.489Z,3.61
2022-11-29T07:02:11.004Z,3.94
2022-11-29T07:04:46.817Z,4.13
2022-11-29T07:07:17.354Z,4.16
2022-11-29T07:09:45.546Z,4.19
2022-11-29T07:12:12.530Z,4.32
2022-11-29T07:14:39.676Z,4.48
2022-11-29T07:17:29.879Z,4.56
2022-11-29T07:20:15.476Z,4.58
2022-11-29T07:22:42.511Z,4.53
2022-11-29T07:25:28.561Z,4.41
2022-11-29T07:27:55.200Z,4.39
2022-11-29T07:30:28.834Z,4.33
2022-11-29T07:33:00.449Z,4.22
2022-11-29T07:35:42.599Z,4.27
2022-11-29T07:38:15.154Z,4.48
2022-11-29T07:40:47.838Z,4.68
2022-11-29T07:43:23.393Z,4.50
2022-11-29T07:45:50.428Z,4.82
2022-11-29T07:48:17.404Z,5.25
2022-11-29T07:50:44.680Z,5.53
2022-11-29T07:53:18.906Z,5.68
2022-11-29T07:55:46.350Z,5.54
2022-11-29T07:58:13.520Z,5.48
2022-11-29T08:00:41.524Z,5.53
2022-11-29T08:03:08.860Z,5.63
2022-11-29T08:05:35.897Z,5.81
2022-11-29T08:08:02.994Z,6.00
2022-11-29T08:10:29.720Z,6.19
2022-11-29T08:12:56.516Z,6.24
2022-11-29T08:15:24.666Z,6.29
2022-11-29T08:17:52.637Z,6.21
2022-11-29T08:20:19.440Z,6.32
2022-11-29T08:22:52.767Z,6.43
2022-11-29T08:25:19.311Z,6.42
2022-11-29T08:27:46.856Z,6.58
2022-11-29T08:30:13.807Z,6.75
2022-11-29T08:32:40.335Z,6.88
2022-11-29T08:35:07.112Z,6.84
2022-11-29T08:37:33.717Z,6.88
2022-11-29T08:40:00.408Z,6.95
2022-11-29T08:42:26.953Z,7.12
2022-11-29T08:44:54.372Z,6.95
2022-11-29T08:47:36.045Z,6.88
2022-11-29T08:50:13.960Z,6.93
2022-11-29T08:53:03.642Z,6.90
2022-11-29T08:55:32.026Z,6.87
2022-11-29T08:58:03.455Z,7.01
2022-11-29T09:00:31.520Z,7.25
2022-11-29T09:03:18.031Z,7.30
2022-11-29T09:05:44.605Z,7.43
2022-11-29T09:08:11.481Z,7.61
2022-11-29T09:10:42.110Z,7.68
2022-11-29T09:13:09.472Z,7.65
2022-11-29T09:15:36.627Z,7.80
2022-11-29T09:18:04.996Z,7.99
2022-11-29T09:20:32.636Z,7.88
2022-11-29T09:23:00.231Z,7.93
2022-11-29T09:25:27.162Z,8.06
2022-11-29T09:27:53.838Z,8.34
2022-11-29T09:30:23.695Z,8.16
2022-11-29T09:32:50.959Z,8.24
2022-11-29T09:35:17.744Z,8.12
2022-11-29T09:37:44.492Z,8.11
2022-11-29T09:40:16.400Z,8.24
2022-11-29T09:42:58.282Z,8.43
2022-11-29T09:45:37.731Z,8.74
2022-11-29T09:48:15.661Z,8.92
2022-11-29T09:50:53.490Z,9.15
2022-11-29T09:53:20.293Z,9.14
2022-11-29T09:55:58.891Z,9.06
2022-11-29T09:58:28.195Z,9.23
2022-11-29T10:00:59.977Z,9.38
2022-11-29T10:03:33.683Z,9.32
2022-11-29T10:06:03.687Z,9.21
2022-11-29T10:08:36.225Z,9.26
2022-11-29T10:11:15.490Z,9.42
2022-11-29T10:13:45.222Z,9.50
2022-11-29T10:16:18.990Z,9.65
2022-11-29T10:18:51.935Z,9.79
2022-11-29T10:21:21.243Z,9.64
2022-11-29T10:23:49.199Z,9.61
2022-11-29T10:26:17.439Z,9.55
2022-11-29T10:28:46.815Z,9.52
2022-11-29T10:31:20.830Z,9.55
2022-11-29T10:33:48.653Z,9.51
2022-11-29T10:36:26.345Z,9.54
2022-11-29T10:38:56.306Z,9.68
2022-11-29T10:41:22.939Z,9.77
2022-11-29T10:43:50.345Z,9.80
2022-11-29T10:46:27.649Z,9.89
2022-11-29T10:48:54.650Z,9.89
2022-11-29T10:51:21.505Z,9.92
2022-11-29T10:53:49.137Z,10.08
2022-11-29T10:56:19.286Z,10.25
2022-11-29T10:59:02.711Z,10.30
2022-11-29T11:01:31.249Z,10.32
2022-11-29T11:03:59.571Z,10.25
2022-11-29T11:06:40.815Z,10.09
2022-11-29T11:09:25.920Z,10.09
2022-11-29T11:11:57.293Z,10.04
2022-11-29T11:14:28.476Z,10.04
2022-11-29T11:16:55.343Z,10.08
2022-11-29T11:19:29.470Z,10.13
2022-11-29T11:21:57.526Z,10.20
2022-11-29T11:24:26.650Z,10.38
2022-11-29T11:26:53.701Z,10.46
2022-11-29T11:29:43.701Z,10.46
2022-11-29T11:32:18.399Z,10.37
2022-11-29T11:34:55.601Z,10.40
2022-11-29T11:37:27.316Z,10.45
2022-11-29T11:40:17.208Z,10.35
2022-11-29T11:42:44.532Z,10.29
2022-11-29T11:45:13.335Z,10.32
2022-11-29T11:47:42.922Z,10.28
2022-11-29T11:50:12.132Z,10.36
2022-11-29T11:52:41.952Z,10.39
2022-11-29T11:55:29.365Z,10.39
2022-11-29T11:58:00.536Z,10.36
2022-11-29T12:03:51.326Z,10.49
2022-11-29T12:06:27.282Z,10.64
2022-11-29T12:09:06.110Z,10.60
2022-11-29T12:11:51.701Z,10.54
2022-11-29T12:14:36.869Z,10.57
2022-11-29T12:17:08.998Z,10.64
2022-11-29T12:19:41.435Z,10.55
2022-11-29T12:22:13.665Z,10.39
2022-11-29T12:24:46.119Z,10.29
2022-11-29T12:27:15.008Z,10.35
2022-11-29T12:29:41.767Z,10.41
2022-11-29T12:32:31.746Z,10.49
2022-11-29T12:35:01.535Z,10.54
2022-11-29T12:37:31.031Z,10.60
2022-11-29T12:40:00.572Z,10.66
2022-11-29T12:42:30.038Z,10.73
2022-11-29T12:45:20.301Z,10.69
2022-11-29T12:47:52.124Z,10.71
2022-11-29T12:50:18.957Z,10.72
2022-11-29T12:52:59.730Z,10.65
2022-11-29T12:55:39.007Z,10.61
2022-11-29T12:58:24.137Z,10.61
2022-11-29T13:00:56.614Z,10.56
2022-11-29T13:03:38.024Z,10.45
2022-11-29T13:06:12.793Z,10.43
2022-11-29T13:08:42.425Z,10.49
2022-11-29T13:11:09.282Z,10.46
2022-11-29T13:13:39.039Z,10.49
2022-11-29T13:16:15.826Z,10.53
2022-11-29T13:19:18.213Z,10.65
2022-11-29T13:21:59.926Z,10.56
2022-11-29T13:24:31.286Z,10.52
2022-11-29T13:27:01.110Z,10.52
2022-11-29T13:29:27.725Z,10.54
2022-11-29T13:31:54.379Z,10.62
2022-11-29T13:34:20.828Z,10.70
2022-11-29T13:37:05.879Z,10.68
2022-11-29T13:40:04.882Z,10.60
2022-11-29T13:42:37.568Z,10.45
2022-11-29T13:45:09.780Z,10.37
2022-11-29T13:47:47.295Z,10.33
2022-11-29T13:50:32.476Z,10.21
2022-11-29T13:53:04.318Z,10.07
2022-11-29T13:55:32.440Z,10.00
2022-11-29T13:58:18.803Z,9.93
2022-11-29T14:00:45.630Z,9.85
2022-11-29T14:03:27.154Z,9.77
2022-11-29T14:06:07.622Z,9.66
2022-11-29T14:09:16.708Z,9.62
2022-11-29T14:11:25.842Z,9.54
2022-11-29T14:14:11.151Z,9.49
2022-11-29T14:16:37.939Z,9.46
2022-11-29T14:19:08.586Z,9.44
2022-11-29T14:21:56.117Z,9.36
2022-11-29T14:24:32.396Z,9.28
2022-11-29T14:27:22.350Z,9.17
2022-11-29T14:29:53.235Z,8.94
2022-11-29T14:32:25.870Z,8.77
2022-11-29T14:35:14.525Z,8.67
2022-11-29T14:37:43.782Z,8.57
2022-11-29T14:40:19.102Z,8.43
2022-11-29T14:42:47.585Z,8.27
2022-11-29T14:45:31.944Z,8.14
2022-11-29T14:47:59.451Z,7.97
2022-11-29T14:50:36.530Z,7.81
2022-11-29T14:53:04.884Z,7.70
2022-11-29T14:55:33.495Z,7.64
2022-11-29T14:58:03.444Z,7.54
2022-11-29T15:00:34.238Z,7.53
2022-11-29T15:03:12.491Z,7.40
2022-11-29T15:05:48.401Z,7.27
2022-11-29T15:08:14.921Z,7.17
2022-11-29T15:10:44.273Z,7.10
2022-11-29T15:13:12.685Z,6.95
2022-11-29T15:15:42.239Z,6.91
2022-11-29T15:18:23.830Z,6.91
2022-11-29T15:20:55.160Z,6.83
2022-11-29T15:23:21.689Z,6.83
2022-11-29T15:25:50.682Z,6.91
2022-11-29T15:28:25.165Z,7.02
2022-11-29T15:31:06.337Z,7.08
2022-11-29T15:33:34.058Z,7.07
2022-11-29T15:36:05.378Z,7.04
2022-11-29T15:38:40.624Z,7.04
2022-11-29T15:41:17.400Z,6.93
2022-11-29T15:43:46.800Z,6.75
2022-11-29T15:46:24.096Z,6.71
2022-11-29T15:48:50.927Z,6.37
2022-11-29T15:51:30.829Z,6.06
2022-11-29T15:54:16.356Z,6.01
2022-11-29T15:56:51.807Z,6.03
2022-11-29T15:59:27.806Z,6.34
2022-11-29T16:01:56.066Z,6.66
2022-11-29T16:04:26.698Z,6.93
2022-11-29T16:06:54.731Z,7.00
2022-11-29T16:09:37.680Z,6.87
2022-11-29T16:12:08.750Z,6.57
2022-11-29T16:14:35.425Z,6.51
2022-11-29T16:17:03.339Z,6.58
2022-11-29T16:19:29.927Z,6.12
2022-11-29T16:22:11.620Z,6.00
2022-11-29T16:24:39.793Z,6.15
2022-11-29T16:27:07.556Z,6.15
2022-11-29T16:29:36.646Z,6.08
2022-11-29T16:32:24.136Z,5.93
2022-11-29T16:34:50.954Z,6.16
2022-11-29T16:37:19.929Z,6.10
2022-11-29T16:39:47.732Z,6.22
2022-11-29T16:42:25.048Z,5.97
2022-11-29T16:44:57.770Z,5.75
2022-11-29T16:47:25.951Z,5.78
2022-11-29T16:50:01.771Z,5.79
2022-11-29T16:52:29.526Z,5.69
2022-11-29T16:54:56.684Z,5.80
2022-11-29T16:57:23.604Z,5.95
2022-11-29T16:59:50.291Z,5.81
2022-11-29T17:02:17.043Z,5.86
2022-11-29T17:04:44.489Z,6.12
2022-11-29T17:07:16.247Z,6.15
2022-11-29T17:09:42.801Z,6.21
2022-11-29T17:12:12.287Z,6.22
2022-11-29T17:14:39.298Z,6.06
2022-11-29T17:17:06.010Z,6.11
2022-11-29T17:19:32.644Z,6.04
2022-11-29T17:21:59.278Z,5.91
2022-11-29T17:24:25.814Z,6.11
2022-11-29T17:26:52.489Z,6.16
2022-11-29T17:29:19.150Z,6.11
2022-11-29T17:31:46.333Z,6.09
2022-11-29T17:34:13.205Z,6.23
2022-11-29T17:36:40.044Z,6.20
2022-11-29T17:39:07.165Z,6.25
2022-11-29T17:41:34.165Z,6.18
2022-11-29T17:44:00.875Z,6.22
2022-11-29T17:46:28.489Z,5.97
2022-11-29T17:48:55.773Z,5.78
2022-11-29T17:51:50.471Z,5.79
2022-11-29T17:54:10.504Z,5.81
2022-11-29T17:56:37.285Z,5.87
2022-11-29T17:59:05.304Z,5.84
2022-11-29T18:01:32.983Z,5.82
2022-11-29T18:04:00.719Z,5.79
2022-11-29T18:06:28.188Z,5.83
2022-11-29T18:08:56.148Z,5.86
2022-11-29T18:11:24.875Z,5.79
2022-11-29T18:13:52.646Z,5.78
2022-11-29T18:16:20.515Z,5.42
2022-11-29T18:18:53.319Z,5.06
2022-11-29T18:21:20.194Z,5.18
2022-11-29T18:23:47.002Z,5.33
2022-11-29T18:26:15.099Z,5.52
2022-11-29T18:28:42.571Z,5.64
2022-11-29T18:31:10.221Z,5.49
2022-11-29T18:33:36.921Z,5.26
2022-11-29T18:36:04.813Z,5.00
2022-11-29T18:38:32.345Z,4.95
2022-11-29T18:40:59.699Z,4.82
2022-11-29T18:43:26.539Z,4.99
2022-11-29T18:45:53.422Z,5.23
2022-11-29T18:48:20.048Z,5.47
2022-11-29T18:50:46.654Z,5.43
2022-11-29T18:53:13.427Z,5.32
2022-11-29T18:55:40.040Z,5.12
2022-11-29T18:58:07.616Z,5.32
2022-11-29T19:00:34.127Z,5.49
2022-11-29T19:03:00.837Z,5.75
2022-11-29T19:05:27.704Z,5.46
2022-11-29T19:07:54.588Z,5.32
2022-11-29T19:10:21.248Z,5.13
2022-11-29T19:12:48.189Z,4.95
2022-11-29T19:15:15.072Z,4.94
2022-11-29T19:17:43.277Z,4.81
2022-11-29T19:20:10.678Z,4.76
2022-11-29T19:22:37.442Z,4.97
2022-11-29T19:25:04.656Z,5.12
2022-11-29T19:27:31.326Z,4.95
2022-11-29T19:29:57.966Z,4.84
2022-11-29T19:32:24.702Z,4.72
2022-11-29T19:34:52.120Z,4.72
2022-11-29T19:37:18.897Z,4.71
2022-11-29T19:39:46.061Z,4.63
2022-11-29T19:42:13.074Z,4.65
2022-11-29T19:45:14.795Z,4.73
2022-11-29T19:47:26.843Z,4.62
2022-11-29T19:49:55.864Z,4.20
2022-11-29T19:52:27.658Z,4.18
2022-11-29T19:54:54.264Z,4.42
2022-11-29T19:57:20.775Z,4.68
2022-11-29T19:59:48.816Z,4.98
2022-11-29T20:02:15.559Z,5.24
2022-11-29T20:04:44.807Z,5.20
2022-11-29T20:07:11.413Z,5.10
2022-11-29T20:09:37.942Z,4.78
2022-11-29T20:12:04.510Z,4.56
2022-11-29T20:14:31.025Z,4.43
2022-11-29T20:16:57.495Z,4.46
2022-11-29T20:19:24.076Z,4.38
2022-11-29T20:21:50.579Z,4.21
2022-11-29T20:24:18.649Z,3.98
2022-11-29T20:26:46.211Z,4.12
2022-11-29T20:29:13.213Z,4.31
2022-11-29T20:31:46.013Z,4.27
2022-11-29T20:34:16.238Z,4.23
2022-11-29T20:36:58.692Z,4.36
2022-11-29T20:39:36.652Z,4.07
2022-11-29T20:42:03.331Z,4.01
2022-11-29T20:44:37.497Z,4.13
2022-11-29T20:47:13.447Z,4.08
2022-11-29T20:49:40.347Z,4.16
2022-11-29T20:52:10.982Z,4.27
2022-11-29T20:54:37.710Z,4.18
2022-11-29T20:57:04.197Z,3.88
2022-11-29T20:59:30.685Z,3.74
2022-11-29T21:02:00.520Z,3.85
2022-11-29T21:04:27.205Z,3.95
2022-11-29T21:06:53.864Z,4.00
2022-11-29T21:09:20.349Z,4.32
2022-11-29T21:11:47.034Z,4.11
2022-11-29T21:14:13.818Z,3.76
2022-11-29T21:16:41.945Z,3.61
2022-11-29T21:19:11.719Z,3.40
2022-11-29T21:21:53.423Z,3.64
2022-11-29T21:24:46.624Z,3.96
2022-11-29T21:27:17.081Z,3.83
2022-11-29T21:29:44.035Z,4.00
2022-11-29T21:32:20.477Z,4.28
2022-11-29T21:34:47.680Z,4.41
2022-11-29T21:37:15.304Z,4.54
2022-11-29T21:39:42.203Z,4.56
2022-11-29T21:42:08.832Z,4.28
2022-11-29T21:44:35.776Z,3.94
2022-11-29T21:47:02.521Z,3.63
2022-11-29T21:49:29.194Z,3.72
2022-11-29T21:52:01.999Z,3.91
2022-11-29T21:54:28.981Z,3.68
2022-11-29T21:56:55.750Z,3.71
2022-11-29T21:59:24.235Z,3.86
2022-11-29T22:01:51.678Z,3.88
2022-11-29T22:04:18.523Z,4.08
2022-11-29T22:06:46.390Z,3.96
2022-11-29T22:09:13.202Z,3.76
2022-11-29T22:11:40.253Z,3.94
2022-11-29T22:14:14.522Z,3.71
2022-11-29T22:16:51.950Z,3.59
2022-11-29T22:19:20.303Z,3.54
2022-11-29T22:21:48.827Z,3.48
2022-11-29T22:24:17.027Z,3.27
2022-11-29T22:26:44.334Z,3.04
2022-11-29T22:29:13.338Z,3.31
2022-11-29T22:31:40.793Z,3.24
2022-11-29T22:34:07.578Z,2.89
2022-11-29T22:36:34.875Z,2.83
2022-11-29T22:39:01.422Z,2.93
2022-11-29T22:41:28.118Z,3.20
2022-11-29T22:43:55.195Z,3.43
2022-11-29T22:46:22.839Z,3.11
2022-11-29T22:48:51.886Z,3.02
2022-11-29T22:51:20.020Z,3.29
2022-11-29T22:53:50.989Z,3.31
2022-11-29T22:56:18.106Z,3.29
2022-11-29T22:58:45.051Z,3.39
2022-11-29T23:01:11.820Z,3.55
2022-11-29T23:03:39.725Z,3.69
2022-11-29T23:06:07.609Z,3.74
2022-11-29T23:08:34.654Z,3.74
2022-11-29T23:11:03.873Z,3.61
2022-11-29T23:13:34.387Z,3.54
2022-11-29T23:16:01.294Z,3.62
2022-11-29T23:18:28.479Z,3.71
2022-11-29T23:21:01.367Z,3.51
2022-11-29T23:23:28.001Z,3.44
2022-11-29T23:25:54.524Z,3.39
2022-11-29T23:28:21.488Z,3.48
2022-11-29T23:30:48.023Z,3.59
2022-11-29T23:33:14.560Z,3.60
2022-11-29T23:35:41.274Z,3.69
2022-11-29T23:38:07.849Z,3.59
2022-11-29T23:40:34.564Z,3.56
2022-11-29T23:43:01.126Z,3.51
2022-11-29T23:45:27.978Z,3.42
2022-11-29T23:47:55.494Z,3.40
2022-11-29T23:50:22.799Z,3.37
2022-11-29T23:52:53.993Z,3.29
2022-11-29T23:55:21.143Z,3.34
2022-11-29T23:57:47.714Z,3.15
